createdAt,value
2023-04-28T00:02:08.391Z,22.8
2023-04-28T00:08:02.306Z,22.8
2023-04-28T00:13:53.693Z,22.8
2023-04-28T00:19:46.077Z,22.8
2023-04-28T00:25:37.678Z,22.9
2023-04-28T00:31:33.404Z,22.8
2023-04-28T00:37:24.875Z,22.9
2023-04-28T00:43:01.296Z,22.9
2023-04-28T00:48:37.072Z,22.9
2023-04-28T00:54:28.230Z,22.9
2023-04-28T01:00:04.260Z,22.9
2023-04-28T01:05:43.050Z,22.9
2023-04-28T01:11:34.463Z,22.9
2023-04-28T01:17:27.130Z,22.9
2023-04-28T01:23:17.656Z,22.9
2023-04-28T01:29:08.955Z,22.9
2023-04-28T01:35:00.726Z,22.9
2023-04-28T01:40:52.075Z,22.9
2023-04-28T01:46:43.738Z,22.9
2023-04-28T01:52:35.331Z,23
2023-04-28T01:58:28.797Z,23
2023-04-28T02:04:21.348Z,22.9
2023-04-28T02:10:12.901Z,22.9
2023-04-28T02:15:48.772Z,22.9
2023-04-28T02:21:43.048Z,23
2023-04-28T02:27:19.014Z,22.9
2023-04-28T02:32:55.631Z,23
2023-04-28T02:38:46.855Z,22.9
2023-04-28T02:44:38.254Z,23
2023-04-28T02:50:14.372Z,23
2023-04-28T02:56:06.214Z,22.9
2023-04-28T03:01:58.385Z,22.9
2023-04-28T03:07:36.115Z,23
2023-04-28T03:13:12.198Z,23
2023-04-28T03:18:34.573Z,23
2023-04-28T03:24:34.878Z,23
2023-04-28T03:30:10.672Z,23
2023-04-28T03:35:31.351Z,23
2023-04-28T03:41:23.610Z,23
2023-04-28T03:47:17.080Z,23
2023-04-28T03:53:08.110Z,23
2023-04-28T03:58:59.360Z,23
2023-04-28T04:04:53.402Z,23
2023-04-28T04:10:30.699Z,23
2023-04-28T04:16:22.800Z,23
2023-04-28T04:22:15.617Z,23
2023-04-28T04:28:06.877Z,23
2023-04-28T04:33:58.544Z,23
2023-04-28T04:39:50.176Z,23.1
2023-04-28T04:45:58.648Z,23
2023-04-28T04:51:51.082Z,23
2023-04-28T04:57:44.747Z,23
2023-04-28T05:03:37.208Z,23
2023-04-28T05:09:45.044Z,23
2023-04-28T05:15:39.675Z,23
2023-04-28T05:21:31.903Z,23
2023-04-28T05:27:23.940Z,23.1
2023-04-28T05:33:16.022Z,23
2023-04-28T05:39:07.368Z,23
2023-04-28T05:44:59.573Z,23.1
2023-04-28T05:51:03.533Z,23
2023-04-28T05:56:55.932Z,23.1
2023-04-28T06:02:40.195Z,23
2023-04-28T06:08:19.941Z,23
2023-04-28T06:14:11.357Z,23
2023-04-28T06:19:32.776Z,23.1
2023-04-28T06:24:53.269Z,23.1
2023-04-28T06:30:30.570Z,23
2023-04-28T06:35:53.801Z,23
2023-04-28T06:40:59.344Z,23
2023-04-28T06:46:23.030Z,23
2023-04-28T06:51:43.736Z,23.1
2023-04-28T06:57:41.765Z,23
2023-04-28T07:03:35.024Z,23.1
2023-04-28T07:09:31.402Z,23
2023-04-28T07:15:23.184Z,23.1
2023-04-28T07:21:15.188Z,23
2023-04-28T07:27:08.942Z,23
2023-04-28T07:33:18.478Z,23
2023-04-28T07:39:09.988Z,23
2023-04-28T07:45:04.641Z,23
2023-04-28T07:50:41.602Z,23.1
2023-04-28T07:56:32.706Z,23
2023-04-28T08:02:25.576Z,23
2023-04-28T08:08:20.123Z,23
2023-04-28T08:13:55.331Z,23
2023-04-28T08:19:48.860Z,23
2023-04-28T08:25:43.934Z,23
2023-04-28T08:31:05.815Z,23
2023-04-28T08:36:42.550Z,23.1
2023-04-28T08:42:21.608Z,23
2023-04-28T08:47:44.003Z,23
2023-04-28T08:53:20.016Z,23
2023-04-28T08:58:57.408Z,23
2023-04-28T09:04:36.264Z,22.9
2023-04-28T09:10:00.569Z,22.9
2023-04-28T09:15:21.702Z,23.1
2023-04-28T09:21:14.009Z,23
2023-04-28T09:27:23.224Z,22.9
2023-04-28T09:33:00.174Z,23
2023-04-28T09:38:22.134Z,22.9
2023-04-28T09:44:15.609Z,22.9
2023-04-28T09:49:37.632Z,22.9
2023-04-28T09:55:28.383Z,22.9
2023-04-28T10:01:20.594Z,23
2023-04-28T10:09:10.315Z,22.8
2023-04-28T10:15:01.696Z,22.9
2023-04-28T10:20:37.746Z,22.9
2023-04-28T10:26:29.249Z,22.9
2023-04-28T10:32:33.408Z,22.9
2023-04-28T10:38:36.874Z,22.9
2023-04-28T10:44:27.905Z,22.9
2023-04-28T10:50:32.603Z,22.9
2023-04-28T10:56:41.357Z,22.9
2023-04-28T11:02:33.868Z,22.9
2023-04-28T11:08:27.224Z,22.9
2023-04-28T11:14:20.672Z,22.9
2023-04-28T11:19:56.852Z,22.9
2023-04-28T11:25:48.507Z,22.9
2023-04-28T11:31:39.763Z,22.9
2023-04-28T11:37:32.720Z,22.9
2023-04-28T11:43:23.917Z,22.9
2023-04-28T11:49:23.834Z,22.9
2023-04-28T11:55:15.853Z,22.9
2023-04-28T12:01:09.588Z,22.9
2023-04-28T12:07:05.951Z,22.9
2023-04-28T12:13:13.277Z,22.8
2023-04-28T12:19:06.289Z,22.9
2023-04-28T12:24:58.509Z,22.8
2023-04-28T12:30:33.823Z,22.8
2023-04-28T12:36:27.556Z,22.8
2023-04-28T12:42:19.897Z,22.8
2023-04-28T12:48:13.104Z,22.8
2023-04-28T12:54:04.679Z,22.8
2023-04-28T12:59:41.046Z,22.8
2023-04-28T13:05:34.968Z,22.8
2023-04-28T13:11:37.725Z,22.8
2023-04-28T13:17:29.752Z,22.8
2023-04-28T13:23:23.452Z,22.8
2023-04-28T13:29:00.577Z,22.8
2023-04-28T13:34:36.815Z,22.8
2023-04-28T13:40:29.459Z,22.8
2023-04-28T13:46:20.702Z,22.8
2023-04-28T13:52:12.054Z,22.8
2023-04-28T13:58:03.917Z,22.8
2023-04-28T14:03:56.783Z,22.7
2023-04-28T14:09:47.928Z,22.7
2023-04-28T14:15:47.850Z,22.7
2023-04-28T14:21:41.887Z,22.7
2023-04-28T14:27:33.438Z,22.7
2023-04-28T14:33:25.512Z,22.7
2023-04-28T14:39:18.233Z,22.7
2023-04-28T14:44:54.629Z,22.7
2023-04-28T14:50:46.612Z,22.7
2023-04-28T14:56:55.512Z,22.7
2023-04-28T15:02:32.472Z,22.7
2023-04-28T15:08:27.710Z,22.7
2023-04-28T15:14:05.459Z,22.6
2023-04-28T15:19:58.528Z,22.6
2023-04-28T15:25:50.747Z,22.6
2023-04-28T15:31:43.468Z,22.6
2023-04-28T15:37:36.519Z,22.6
2023-04-28T15:43:31.293Z,22.6
2023-04-28T15:49:23.597Z,22.6
2023-04-28T15:55:15.960Z,22.6
2023-04-28T16:01:07.979Z,22.6
2023-04-28T16:07:01.555Z,22.6
2023-04-28T16:12:53.830Z,22.6
2023-04-28T16:18:46.756Z,22.6
2023-04-28T16:24:24.805Z,22.6
2023-04-28T16:30:16.981Z,22.6
2023-04-28T16:36:10.270Z,22.5
2023-04-28T16:42:02.148Z,22.6
2023-04-28T16:47:54.814Z,22.5
2023-04-28T16:53:47.388Z,22.5
2023-04-28T16:59:40.253Z,22.5
2023-04-28T17:05:34.260Z,22.5
2023-04-28T17:10:55.321Z,22.5
2023-04-28T17:16:49.915Z,22.4
2023-04-28T17:22:42.786Z,22.5
2023-04-28T17:28:34.594Z,22.4
2023-04-28T17:34:29.791Z,22.4
2023-04-28T17:40:21.783Z,22.4
2023-04-28T17:46:13.349Z,22.4
2023-04-28T17:52:06.015Z,22.4
2023-04-28T17:57:59.265Z,22.4
2023-04-28T18:03:52.159Z,22.4
2023-04-28T18:09:47.904Z,22.4
2023-04-28T18:15:42.406Z,22.4
2023-04-28T18:21:37.400Z,22.4
2023-04-28T18:27:29.442Z,22.4
2023-04-28T18:33:24.796Z,22.3
2023-04-28T18:39:16.675Z,22.3
2023-04-28T18:45:09.166Z,22.3
2023-04-28T18:51:04.167Z,22.3
2023-04-28T18:56:55.639Z,22.3
2023-04-28T19:02:47.973Z,22.3
2023-04-28T19:08:30.842Z,22.3
2023-04-28T19:14:22.308Z,22.3
2023-04-28T19:20:14.057Z,22.3
2023-04-28T19:26:06.329Z,22.3
2023-04-28T19:31:58.890Z,22.3
2023-04-28T19:37:51.403Z,22.3
2023-04-28T19:43:44.034Z,22.3
2023-04-28T19:49:36.923Z,22.3
2023-04-28T19:55:29.344Z,22.3
2023-04-28T20:00:53.869Z,22.3
2023-04-28T20:06:48.316Z,22.3
2023-04-28T20:12:26.359Z,22.3
2023-04-28T20:18:17.958Z,22.3
2023-04-28T20:24:09.930Z,22.3
2023-04-28T20:30:02.860Z,22.3
2023-04-28T20:35:54.780Z,22.3
2023-04-28T20:41:46.300Z,22.3
2023-04-28T20:47:38.623Z,22.3
2023-04-28T20:53:33.082Z,22.3
2023-04-28T20:59:25.381Z,22.3
2023-04-28T21:05:19.099Z,22.3
2023-04-28T21:11:10.639Z,22.2
2023-04-28T21:17:01.805Z,22.3
2023-04-28T21:22:38.625Z,22.3
2023-04-28T21:28:30.158Z,22.3
2023-04-28T21:34:22.060Z,22.2
2023-04-28T21:40:13.686Z,22.3
2023-04-28T21:45:49.852Z,22.2
2023-04-28T21:51:10.661Z,22.3
2023-04-28T21:57:02.139Z,22.2
2023-04-28T22:02:54.552Z,22.3
2023-04-28T22:08:32.369Z,22.3
2023-04-28T22:14:39.238Z,22.3
2023-04-28T22:20:31.986Z,22.2
2023-04-28T22:26:23.518Z,22.2
2023-04-28T22:31:59.540Z,22.3
2023-04-28T22:37:35.702Z,22.3
2023-04-28T22:43:11.790Z,22.3
2023-04-28T22:49:03.173Z,22.2
2023-04-28T22:54:54.523Z,22.3
2023-04-28T23:00:33.258Z,22.3
2023-04-28T23:06:27.507Z,22.2
2023-04-28T23:12:03.508Z,22.3
2023-04-28T23:17:55.397Z,22.2
2023-04-28T23:23:49.294Z,22.3
2023-04-28T23:29:25.222Z,22.2
2023-04-28T23:35:01.643Z,22.2
2023-04-28T23:40:37.915Z,22.2
2023-04-28T23:46:14.328Z,22.2
2023-04-28T23:52:05.775Z,22.2
2023-04-28T23:57:56.729Z,22.2
